Time;durP1;ratioP1;P1;durP2;ratioP2;P2;SDS_P1;SDS_P2;PMS_P1;PMS_P2;Temp;Humidity;BMP_temperature;BMP_pressure;BME280_temperature;BME280_humidity;BME280_pressure;Samples;Min_cycle;Max_cycle;Signal;HPM_P1;HPM_P2
2020/12/30 00:00:26;;;;;;;25.30;2.67;;;;;;;;;;5039540;28;20020;-46
2020/12/30 00:02:53;;;;;;;20.05;2.13;;;;;;;;;;5036961;28;20028;-46
2020/12/30 00:05:20;;;;;;;28.40;2.28;;;;;;;;;;5031704;28;20028;-48
2020/12/30 00:07:47;;;;;;;34.92;3.28;;;;;;;;;;5036887;28;20112;-43
2020/12/30 00:10:16;;;;;;;35.05;3.15;;;;;;;;;;5037784;28;20478;-46
2020/12/30 00:12:43;;;;;;;20.65;2.20;;;;;;;;;;5031542;28;20413;-46
2020/12/30 00:15:10;;;;;;;42.10;3.22;;;;;;;;;;5045690;28;20137;-46
2020/12/30 00:17:40;;;;;;;66.47;5.13;;;;;;;;;;5051005;28;20741;-46
2020/12/30 00:20:13;;;;;;;28.45;2.70;;;;;;;;;;5050819;28;20029;-46
2020/12/30 00:22:40;;;;;;;14.27;1.70;;;;;;;;;;5051179;28;20025;-45
2020/12/30 00:25:07;;;;;;;10.23;1.48;;;;;;;;;;5051269;28;20028;-45
2020/12/30 00:27:35;;;;;;;14.48;2.47;;;;;;;;;;5051332;28;20400;-46
2020/12/30 00:30:02;;;;;;;29.75;3.25;;;;;;;;;;5050809;28;20874;-48
2020/12/30 00:32:29;;;;;;;16.83;2.45;;;;;;;;;;5051368;28;20056;-46
2020/12/30 00:34:56;;;;;;;13.50;2.30;;;;;;;;;;5051154;28;20608;-47
2020/12/30 00:37:23;;;;;;;11.20;2.20;;;;;;;;;;5051562;28;20057;-47
2020/12/30 00:39:50;;;;;;;15.77;3.22;;;;;;;;;;5050639;28;20075;-47
2020/12/30 00:42:17;;;;;;;33.17;4.05;;;;;;;;;;5050982;28;20017;-45
2020/12/30 00:44:44;;;;;;;31.73;4.32;;;;;;;;;;5050817;28;20024;-46
2020/12/30 00:47:11;;;;;;;22.17;3.28;;;;;;;;;;5051196;28;20460;-46
2020/12/30 00:49:38;;;;;;;9.63;2.08;;;;;;;;;;5050632;28;20082;-46
2020/12/30 00:52:05;;;;;;;20.98;2.53;;;;;;;;;;5049801;28;20076;-45
2020/12/30 00:54:32;;;;;;;18.15;2.40;;;;;;;;;;5046031;28;20032;-48
2020/12/30 00:56:59;;;;;;;18.52;2.85;;;;;;;;;;5050137;28;20056;-48
2020/12/30 00:59:26;;;;;;;21.95;1.83;;;;;;;;;;5038452;28;20111;-48
2020/12/30 01:01:53;;;;;;;13.93;1.33;;;;;;;;;;5047056;28;20533;-52
2020/12/30 01:04:21;;;;;;;13.93;1.38;;;;;;;;;;5050829;28;20421;-49
2020/12/30 01:06:51;;;;;;;6.75;1.05;;;;;;;;;;5035912;28;20025;-47
2020/12/30 01:09:19;;;;;;;6.82;1.63;;;;;;;;;;5032696;28;20041;-46
2020/12/30 01:11:46;;;;;;;27.08;2.78;;;;;;;;;;5034508;28;20026;-44
2020/12/30 01:14:13;;;;;;;11.07;2.15;;;;;;;;;;5034350;28;20088;-44
2020/12/30 01:16:40;;;;;;;7.63;1.63;;;;;;;;;;5034899;28;20032;-43
2020/12/30 01:19:07;;;;;;;10.82;1.02;;;;;;;;;;5043740;28;20021;-45
2020/12/30 01:21:52;;;;;;;2.67;1.20;;;;;;;;;;5050777;28;20028;-41
2020/12/30 01:24:19;;;;;;;8.77;1.40;;;;;;;;;;5049420;28;20032;-45
2020/12/30 01:26:46;;;;;;;4.60;0.98;;;;;;;;;;5047879;28;20538;-44
2020/12/30 01:29:13;;;;;;;4.57;0.75;;;;;;;;;;5052128;28;20036;-45
2020/12/30 01:31:40;;;;;;;3.10;0.90;;;;;;;;;;5052049;28;20052;-41
2020/12/30 01:34:08;;;;;;;6.22;0.80;;;;;;;;;;5049970;28;20048;-41
2020/12/30 01:36:36;;;;;;;6.40;1.38;;;;;;;;;;5049463;28;20017;-45
2020/12/30 01:39:04;;;;;;;5.80;1.80;;;;;;;;;;5051019;28;20025;-42
2020/12/30 01:41:31;;;;;;;4.30;1.70;;;;;;;;;;5044593;28;20089;-44
2020/12/30 01:43:58;;;;;;;4.20;1.38;;;;;;;;;;5053318;28;20427;-43
2020/12/30 01:46:33;;;;;;;6.68;1.25;;;;;;;;;;5043704;28;20096;-46
2020/12/30 01:49:01;;;;;;;4.00;1.05;;;;;;;;;;5046353;28;20022;-45
2020/12/30 01:51:29;;;;;;;12.43;1.50;;;;;;;;;;5035875;28;20148;-44
2020/12/30 01:53:57;;;;;;;4.78;0.90;;;;;;;;;;5051155;28;20025;-52
2020/12/30 01:56:25;;;;;;;2.75;1.05;;;;;;;;;;5053193;28;20170;-46
2020/12/30 01:58:52;;;;;;;6.35;0.77;;;;;;;;;;5053742;28;20029;-44
2020/12/30 02:01:20;;;;;;;4.55;0.90;;;;;;;;;;5053644;28;20036;-46
2020/12/30 02:03:47;;;;;;;3.47;0.90;;;;;;;;;;5053413;28;20025;-46
2020/12/30 02:06:14;;;;;;;3.75;1.02;;;;;;;;;;5048918;28;20740;-44
2020/12/30 02:08:41;;;;;;;5.50;1.27;;;;;;;;;;5046446;28;20029;-46
2020/12/30 02:11:08;;;;;;;10.77;1.83;;;;;;;;;;5052639;28;20024;-46
2020/12/30 02:13:35;;;;;;;4.57;1.17;;;;;;;;;;5053131;28;20434;-43
2020/12/30 02:16:02;;;;;;;6.10;1.30;;;;;;;;;;5048205;28;20376;-44
2020/12/30 02:18:29;;;;;;;7.55;1.15;;;;;;;;;;5052275;28;20029;-43
2020/12/30 02:20:56;;;;;;;9.65;1.30;;;;;;;;;;5047636;28;20030;-42
2020/12/30 02:23:24;;;;;;;3.97;1.10;;;;;;;;;;5049054;28;20361;-42
2020/12/30 02:25:51;;;;;;;4.03;1.00;;;;;;;;;;5050701;28;20036;-41
2020/12/30 02:28:18;;;;;;;3.90;0.75;;;;;;;;;;5050128;28;20075;-40
2020/12/30 02:30:44;;;;;;;6.60;0.90;;;;;;;;;;5048720;28;20604;-42
2020/12/30 02:33:11;;;;;;;8.77;0.95;;;;;;;;;;5045775;28;20025;-41
2020/12/30 02:35:39;;;;;;;4.78;0.90;;;;;;;;;;5050669;28;20037;-42
2020/12/30 02:38:06;;;;;;;11.32;1.20;;;;;;;;;;5050324;28;20021;-43
2020/12/30 02:40:33;;;;;;;4.65;0.90;;;;;;;;;;5048417;28;20014;-43
2020/12/30 02:43:00;;;;;;;2.80;0.70;;;;;;;;;;5047474;28;20035;-43
2020/12/30 02:45:27;;;;;;;6.10;0.90;;;;;;;;;;5039266;28;20466;-43
2020/12/30 02:47:54;;;;;;;5.85;1.05;;;;;;;;;;5052497;28;20484;-43
2020/12/30 02:50:21;;;;;;;9.88;0.93;;;;;;;;;;5052273;28;20499;-45
2020/12/30 02:52:48;;;;;;;5.20;0.80;;;;;;;;;;5034532;28;20040;-44
2020/12/30 02:55:14;;;;;;;3.80;0.73;;;;;;;;;;5044561;28;20044;-44
2020/12/30 02:57:41;;;;;;;5.90;1.30;;;;;;;;;;5050795;28;20484;-43
2020/12/30 03:00:08;;;;;;;4.80;0.80;;;;;;;;;;5046739;28;20025;-44
2020/12/30 03:02:35;;;;;;;3.85;0.80;;;;;;;;;;5047106;28;20383;-44
2020/12/30 03:05:02;;;;;;;11.27;1.17;;;;;;;;;;5049799;28;20452;-44
2020/12/30 03:07:29;;;;;;;4.88;1.05;;;;;;;;;;5050471;28;20035;-44
2020/12/30 03:09:56;;;;;;;7.22;1.08;;;;;;;;;;5047639;28;20035;-45
2020/12/30 03:12:23;;;;;;;9.95;1.15;;;;;;;;;;5049974;28;20017;-43
2020/12/30 03:14:50;;;;;;;9.38;1.02;;;;;;;;;;5047565;28;20043;-45
2020/12/30 03:17:17;;;;;;;8.82;1.10;;;;;;;;;;5032827;28;20424;-43
2020/12/30 03:19:44;;;;;;;12.38;0.98;;;;;;;;;;5048005;28;20710;-44
2020/12/30 03:22:11;;;;;;;6.05;0.85;;;;;;;;;;5047832;28;20538;-44
2020/12/30 03:24:38;;;;;;;11.98;1.27;;;;;;;;;;5032816;28;20078;-44
2020/12/30 03:27:05;;;;;;;7.95;1.25;;;;;;;;;;5048380;28;20021;-43
2020/12/30 03:29:32;;;;;;;4.13;0.80;;;;;;;;;;5016327;28;20040;-44
2020/12/30 03:31:59;;;;;;;6.03;0.75;;;;;;;;;;5047005;28;20032;-45
2020/12/30 03:34:26;;;;;;;10.07;0.93;;;;;;;;;;5049466;28;20099;-47
2020/12/30 03:36:53;;;;;;;7.80;1.23;;;;;;;;;;5044203;28;20469;-45
2020/12/30 03:39:20;;;;;;;9.65;0.65;;;;;;;;;;5049669;28;20021;-46
2020/12/30 03:41:47;;;;;;;6.90;0.95;;;;;;;;;;5050949;28;20024;-45
2020/12/30 03:44:14;;;;;;;8.10;0.98;;;;;;;;;;5051416;28;20503;-44
2020/12/30 03:46:41;;;;;;;7.10;0.90;;;;;;;;;;5051329;28;20090;-45
2020/12/30 03:49:08;;;;;;;9.45;0.95;;;;;;;;;;5047087;28;20025;-44
2020/12/30 03:51:35;;;;;;;4.40;0.90;;;;;;;;;;5045918;28;20049;-43
2020/12/30 03:54:02;;;;;;;8.45;0.82;;;;;;;;;;5045089;28;20041;-46
2020/12/30 03:56:29;;;;;;;6.47;0.90;;;;;;;;;;5040131;28;20025;-45
2020/12/30 03:58:56;;;;;;;7.20;1.15;;;;;;;;;;5041868;28;20024;-45
2020/12/30 04:01:23;;;;;;;3.03;0.60;;;;;;;;;;5048666;28;20025;-45
2020/12/30 04:03:50;;;;;;;4.18;0.90;;;;;;;;;;5049744;28;20020;-46
2020/12/30 04:06:17;;;;;;;3.83;0.70;;;;;;;;;;5051280;28;20029;-43
2020/12/30 04:08:44;;;;;;;3.78;0.70;;;;;;;;;;5051429;28;20043;-48
2020/12/30 04:11:11;;;;;;;3.40;0.70;;;;;;;;;;5050425;28;20424;-47
2020/12/30 04:13:38;;;;;;;3.70;0.88;;;;;;;;;;5051430;28;20487;-46
2020/12/30 04:16:05;;;;;;;2.45;0.85;;;;;;;;;;5051891;28;20037;-50
2020/12/30 04:18:32;;;;;;;2.70;0.70;;;;;;;;;;5051783;28;20029;-48
2020/12/30 04:20:59;;;;;;;2.08;1.00;;;;;;;;;;5049626;28;20040;-47
2020/12/30 04:23:26;;;;;;;2.83;0.60;;;;;;;;;;5051787;28;20108;-46
2020/12/30 04:25:53;;;;;;;5.03;0.80;;;;;;;;;;5051822;28;20435;-45
2020/12/30 04:28:20;;;;;;;4.93;0.80;;;;;;;;;;5051730;28;20021;-47
2020/12/30 04:30:47;;;;;;;4.35;0.50;;;;;;;;;;5051659;28;20028;-48
2020/12/30 04:33:14;;;;;;;4.88;0.88;;;;;;;;;;5051199;28;20025;-50
2020/12/30 04:35:41;;;;;;;3.53;0.80;;;;;;;;;;5051693;28;20036;-48
2020/12/30 04:38:08;;;;;;;6.07;0.90;;;;;;;;;;5051475;28;20021;-49
2020/12/30 04:40:35;;;;;;;8.05;0.90;;;;;;;;;;5051629;28;20032;-47
2020/12/30 04:43:05;;;;;;;2.38;0.52;;;;;;;;;;5052465;28;20017;-50
2020/12/30 04:45:33;;;;;;;4.90;0.70;;;;;;;;;;5055622;28;20021;-46
2020/12/30 04:48:00;;;;;;;6.07;1.00;;;;;;;;;;5055426;28;20049;-49
2020/12/30 04:50:28;;;;;;;5.22;0.95;;;;;;;;;;5054855;28;20017;-47
2020/12/30 04:52:55;;;;;;;2.25;0.95;;;;;;;;;;5055312;28;20071;-49
2020/12/30 04:55:24;;;;;;;7.90;0.77;;;;;;;;;;5054787;28;20064;-47
2020/12/30 04:58:00;;;;;;;4.15;0.80;;;;;;;;;;5055381;28;20028;-47
2020/12/30 05:00:27;;;;;;;3.50;0.70;;;;;;;;;;5055615;28;20477;-44
2020/12/30 05:02:54;;;;;;;2.50;1.00;;;;;;;;;;5055153;28;20503;-45
2020/12/30 05:05:21;;;;;;;4.60;0.77;;;;;;;;;;5055325;28;20033;-44
2020/12/30 05:07:48;;;;;;;3.28;0.60;;;;;;;;;;5055362;28;20029;-44
2020/12/30 05:10:16;;;;;;;1.95;0.40;;;;;;;;;;5055252;28;20021;-45
2020/12/30 05:12:43;;;;;;;5.78;0.95;;;;;;;;;;5055167;28;20083;-46
2020/12/30 05:15:10;;;;;;;4.68;0.70;;;;;;;;;;5055254;28;20060;-44
2020/12/30 05:17:37;;;;;;;3.10;0.88;;;;;;;;;;5055098;28;20427;-44
2020/12/30 05:20:09;;;;;;;4.03;0.80;;;;;;;;;;5054954;28;20111;-44
2020/12/30 05:22:36;;;;;;;2.97;0.60;;;;;;;;;;5054807;28;20029;-49
2020/12/30 05:25:07;;;;;;;3.83;0.50;;;;;;;;;;5054948;28;20024;-46
2020/12/30 05:27:35;;;;;;;3.27;0.90;;;;;;;;;;5054864;28;20032;-46
2020/12/30 05:30:03;;;;;;;4.22;0.70;;;;;;;;;;5054285;28;20335;-46
2020/12/30 05:32:30;;;;;;;2.42;0.70;;;;;;;;;;5053547;28;20480;-48
2020/12/30 05:34:57;;;;;;;1.98;0.60;;;;;;;;;;5054655;28;20079;-46
2020/12/30 05:37:34;;;;;;;3.67;0.60;;;;;;;;;;5054867;28;20053;-49
2020/12/30 05:40:02;;;;;;;3.17;0.88;;;;;;;;;;5054564;28;20104;-47
2020/12/30 05:42:29;;;;;;;2.13;0.45;;;;;;;;;;5054336;28;20033;-46
2020/12/30 05:44:56;;;;;;;3.65;0.77;;;;;;;;;;5054452;28;20104;-49
2020/12/30 05:47:24;;;;;;;3.08;0.40;;;;;;;;;;5054413;28;20017;-47
2020/12/30 05:49:52;;;;;;;8.23;0.90;;;;;;;;;;5054454;28;20025;-46
2020/12/30 05:52:19;;;;;;;3.13;0.70;;;;;;;;;;5054175;28;20084;-45
2020/12/30 05:54:57;;;;;;;4.47;0.40;;;;;;;;;;5053100;28;20037;-49
2020/12/30 05:57:28;;;;;;;2.08;0.43;;;;;;;;;;5052976;28;20381;-47
2020/12/30 05:59:57;;;;;;;2.92;0.50;;;;;;;;;;5053770;28;20017;-48
2020/12/30 06:02:25;;;;;;;2.65;0.70;;;;;;;;;;5054229;28;20025;-47
2020/12/30 06:04:55;;;;;;;5.63;0.70;;;;;;;;;;5054239;28;20021;-46
2020/12/30 06:07:24;;;;;;;2.28;0.38;;;;;;;;;;5052916;28;20102;-48
2020/12/30 06:09:52;;;;;;;3.72;0.60;;;;;;;;;;5053923;28;20029;-47
2020/12/30 06:12:26;;;;;;;6.38;0.60;;;;;;;;;;5053322;28;20036;-50
2020/12/30 06:14:54;;;;;;;1.60;0.40;;;;;;;;;;5053910;28;20033;-52
2020/12/30 06:17:28;;;;;;;2.70;0.70;;;;;;;;;;5054103;28;20542;-52
2020/12/30 06:19:55;;;;;;;2.47;0.70;;;;;;;;;;5053855;28;20036;-50
2020/12/30 06:22:23;;;;;;;3.53;0.30;;;;;;;;;;5053638;28;20021;-52
2020/12/30 06:24:51;;;;;;;9.25;1.02;;;;;;;;;;5053467;28;20029;-52
2020/12/30 06:27:21;;;;;;;4.63;0.93;;;;;;;;;;5053156;28;20108;-52
2020/12/30 06:29:50;;;;;;;3.65;0.45;;;;;;;;;;5053540;28;20389;-51
2020/12/30 06:32:29;;;;;;;2.97;0.50;;;;;;;;;;5053173;28;20060;-52
2020/12/30 06:34:57;;;;;;;5.38;0.70;;;;;;;;;;5052365;28;20396;-49
2020/12/30 06:37:31;;;;;;;3.65;0.50;;;;;;;;;;5052207;28;20411;-51
2020/12/30 06:40:16;;;;;;;1.75;0.55;;;;;;;;;;5053498;28;20048;-52
2020/12/30 06:42:44;;;;;;;2.45;0.60;;;;;;;;;;5053271;28;20108;-52
2020/12/30 06:45:34;;;;;;;3.47;0.60;;;;;;;;;;5053472;28;20021;-51
2020/12/30 06:48:01;;;;;;;4.47;0.45;;;;;;;;;;5053180;28;20094;-48
2020/12/30 06:50:29;;;;;;;4.18;0.50;;;;;;;;;;5053266;28;20021;-50
2020/12/30 06:52:56;;;;;;;2.45;0.40;;;;;;;;;;5052392;28;20423;-52
2020/12/30 06:55:41;;;;;;;2.38;0.50;;;;;;;;;;5051587;28;20489;-49
2020/12/30 06:58:08;;;;;;;5.60;0.40;;;;;;;;;;5053165;28;20469;-50
2020/12/30 07:00:38;;;;;;;2.45;0.40;;;;;;;;;;5053014;28;20150;-48
2020/12/30 07:03:16;;;;;;;2.10;0.60;;;;;;;;;;5052711;28;20013;-49
2020/12/30 07:05:43;;;;;;;2.78;0.85;;;;;;;;;;5052999;28;20028;-48
2020/12/30 07:08:10;;;;;;;1.70;0.40;;;;;;;;;;5052870;28;20376;-51
2020/12/30 07:10:41;;;;;;;2.60;0.75;;;;;;;;;;5053073;28;20108;-48
2020/12/30 07:13:08;;;;;;;2.08;0.40;;;;;;;;;;5052943;28;20024;-50
2020/12/30 07:15:36;;;;;;;2.88;0.52;;;;;;;;;;5052766;28;20067;-49
2020/12/30 07:18:05;;;;;;;2.97;0.50;;;;;;;;;;5052904;28;20028;-52
2020/12/30 07:20:41;;;;;;;1.70;0.43;;;;;;;;;;5052935;28;20477;-51
2020/12/30 07:23:11;;;;;;;3.97;0.47;;;;;;;;;;5052521;28;20376;-50
2020/12/30 07:25:38;;;;;;;2.63;0.28;;;;;;;;;;5052211;28;20032;-50
2020/12/30 07:28:05;;;;;;;2.17;0.38;;;;;;;;;;5052076;28;20032;-46
2020/12/30 07:30:32;;;;;;;3.05;0.80;;;;;;;;;;5052499;28;20441;-49
2020/12/30 07:33:00;;;;;;;1.15;0.40;;;;;;;;;;5051940;28;20366;-49
2020/12/30 07:35:27;;;;;;;2.28;0.32;;;;;;;;;;5052508;28;20033;-47
2020/12/30 07:38:01;;;;;;;2.85;0.43;;;;;;;;;;5052538;28;20017;-43
2020/12/30 07:40:28;;;;;;;2.92;0.55;;;;;;;;;;5051871;28;20033;-49
2020/12/30 07:42:59;;;;;;;1.85;0.95;;;;;;;;;;5051816;28;20022;-52
2020/12/30 07:45:26;;;;;;;1.73;0.30;;;;;;;;;;5051524;28;20465;-48
2020/12/30 07:47:53;;;;;;;1.67;0.30;;;;;;;;;;5052123;28;20101;-48
2020/12/30 07:50:20;;;;;;;3.03;0.30;;;;;;;;;;5050984;28;20071;-49
2020/12/30 07:52:51;;;;;;;3.22;0.40;;;;;;;;;;5052300;28;20120;-49
2020/12/30 07:55:25;;;;;;;2.27;0.60;;;;;;;;;;5052289;28;20033;-48
2020/12/30 07:57:56;;;;;;;1.55;0.32;;;;;;;;;;5052183;28;20286;-49
2020/12/30 08:00:23;;;;;;;1.92;0.50;;;;;;;;;;5052152;28;20021;-48
2020/12/30 08:02:56;;;;;;;3.35;0.70;;;;;;;;;;5052202;28;20561;-48
2020/12/30 08:05:23;;;;;;;2.22;0.47;;;;;;;;;;5052112;28;20056;-50
2020/12/30 08:07:50;;;;;;;1.17;0.30;;;;;;;;;;5051862;28;20381;-50
2020/12/30 08:10:23;;;;;;;4.10;0.80;;;;;;;;;;5052031;28;20112;-47
2020/12/30 08:12:50;;;;;;;2.72;0.40;;;;;;;;;;5052082;28;20032;-53
2020/12/30 08:15:17;;;;;;;0.88;0.30;;;;;;;;;;5051981;28;20750;-49
2020/12/30 08:17:44;;;;;;;1.02;0.30;;;;;;;;;;5050125;28;20098;-46
2020/12/30 08:20:12;;;;;;;3.50;0.50;;;;;;;;;;5051932;28;20536;-49
2020/12/30 08:22:39;;;;;;;3.63;0.68;;;;;;;;;;5051835;28;20032;-48
2020/12/30 08:25:06;;;;;;;0.98;0.30;;;;;;;;;;5051756;28;20021;-48
2020/12/30 08:27:33;;;;;;;1.00;0.40;;;;;;;;;;5051849;28;20036;-48
2020/12/30 08:30:01;;;;;;;2.28;0.70;;;;;;;;;;5051753;28;20039;-51
2020/12/30 08:32:34;;;;;;;3.03;0.60;;;;;;;;;;5051732;28;20029;-52
2020/12/30 08:35:19;;;;;;;1.13;0.60;;;;;;;;;;5051046;28;20591;-49
2020/12/30 08:37:47;;;;;;;2.10;0.80;;;;;;;;;;5051834;28;20029;-48
2020/12/30 08:40:18;;;;;;;2.08;0.73;;;;;;;;;;5051898;28;20499;-48
2020/12/30 08:42:51;;;;;;;1.00;0.57;;;;;;;;;;5051256;28;20054;-47
2020/12/30 08:45:22;;;;;;;2.10;0.88;;;;;;;;;;5051591;28;20413;-48
2020/12/30 08:47:51;;;;;;;2.05;0.70;;;;;;;;;;5051691;28;20033;-48
2020/12/30 08:50:21;;;;;;;2.72;0.80;;;;;;;;;;5051736;28;20021;-47
2020/12/30 08:52:48;;;;;;;2.08;0.60;;;;;;;;;;5051538;28;20036;-47
2020/12/30 08:55:16;;;;;;;2.35;1.00;;;;;;;;;;5051256;28;20377;-44
2020/12/30 08:57:46;;;;;;;2.35;1.02;;;;;;;;;;5051555;28;20075;-44
2020/12/30 09:00:14;;;;;;;2.40;0.90;;;;;;;;;;5051481;28;20067;-44
2020/12/30 09:02:41;;;;;;;4.45;0.88;;;;;;;;;;5051380;28;20500;-44
2020/12/30 09:05:08;;;;;;;1.70;0.75;;;;;;;;;;5051106;28;20037;-44
2020/12/30 09:07:36;;;;;;;3.20;1.10;;;;;;;;;;5050186;28;20028;-43
2020/12/30 09:10:07;;;;;;;4.13;1.20;;;;;;;;;;5051465;28;20021;-44
2020/12/30 09:12:35;;;;;;;2.50;0.88;;;;;;;;;;5051027;28;20374;-44
2020/12/30 09:15:02;;;;;;;2.72;1.00;;;;;;;;;;5051136;28;20543;-43
2020/12/30 09:17:29;;;;;;;2.15;1.10;;;;;;;;;;5051340;28;20083;-44
2020/12/30 09:20:13;;;;;;;2.78;1.30;;;;;;;;;;5050948;28;20104;-43
2020/12/30 09:22:40;;;;;;;2.65;0.95;;;;;;;;;;5051390;28;20029;-44
2020/12/30 09:25:08;;;;;;;2.83;1.30;;;;;;;;;;5050752;28;20026;-43
2020/12/30 09:27:35;;;;;;;2.65;1.10;;;;;;;;;;5051300;28;20104;-43
2020/12/30 09:30:06;;;;;;;1.70;1.00;;;;;;;;;;5052796;28;20036;-44
2020/12/30 09:32:34;;;;;;;3.10;1.10;;;;;;;;;;5054446;28;20080;-44
2020/12/30 09:35:01;;;;;;;2.55;1.10;;;;;;;;;;5054689;28;20033;-44
2020/12/30 09:37:28;;;;;;;1.90;1.05;;;;;;;;;;5054656;28;20040;-44
2020/12/30 09:40:04;;;;;;;2.72;1.27;;;;;;;;;;5054868;28;20025;-44
2020/12/30 09:42:31;;;;;;;2.83;1.27;;;;;;;;;;5054443;28;20388;-43
2020/12/30 09:44:58;;;;;;;3.50;1.25;;;;;;;;;;5054255;28;20112;-44
2020/12/30 09:47:25;;;;;;;3.33;1.35;;;;;;;;;;5054445;28;20040;-44
2020/12/30 09:49:52;;;;;;;1.92;1.00;;;;;;;;;;5054437;28;20048;-44
2020/12/30 09:52:19;;;;;;;2.22;1.10;;;;;;;;;;5054245;28;20543;-44
2020/12/30 09:54:46;;;;;;;1.90;1.02;;;;;;;;;;5053850;28;20033;-45
2020/12/30 09:57:13;;;;;;;3.78;1.30;;;;;;;;;;5053977;28;20090;-44
2020/12/30 09:59:40;;;;;;;2.33;1.27;;;;;;;;;;5053811;28;20434;-44
2020/12/30 10:02:07;;;;;;;3.70;1.05;;;;;;;;;;5054202;28;20056;-42
2020/12/30 10:04:34;;;;;;;3.03;1.00;;;;;;;;;;5052165;28;20116;-44
2020/12/30 10:07:01;;;;;;;2.45;0.90;;;;;;;;;;5054141;28;20030;-43
2020/12/30 10:09:28;;;;;;;3.35;1.40;;;;;;;;;;5053676;28;20048;-46
2020/12/30 10:11:55;;;;;;;1.52;0.90;;;;;;;;;;5053507;28;20028;-45
2020/12/30 10:14:23;;;;;;;2.20;1.02;;;;;;;;;;5052652;28;20062;-45
2020/12/30 10:16:50;;;;;;;1.77;1.10;;;;;;;;;;5053541;28;20086;-44
2020/12/30 10:19:17;;;;;;;2.70;1.20;;;;;;;;;;5053252;28;20021;-45
2020/12/30 10:21:44;;;;;;;2.05;1.08;;;;;;;;;;5048244;28;20102;-42
2020/12/30 10:24:11;;;;;;;5.85;1.20;;;;;;;;;;5052877;28;20021;-43
2020/12/30 10:26:38;;;;;;;8.20;1.30;;;;;;;;;;5053306;28;20071;-43
2020/12/30 10:29:05;;;;;;;5.85;1.10;;;;;;;;;;5053025;28;20025;-41
2020/12/30 10:31:32;;;;;;;2.45;0.95;;;;;;;;;;5047262;28;20366;-42
2020/12/30 10:33:59;;;;;;;2.47;1.27;;;;;;;;;;5053171;28;20086;-43
2020/12/30 10:36:30;;;;;;;4.57;1.20;;;;;;;;;;5052425;28;20397;-41
2020/12/30 10:38:58;;;;;;;3.78;0.80;;;;;;;;;;5052730;28;20032;-48
2020/12/30 10:41:25;;;;;;;11.30;1.08;;;;;;;;;;5052316;28;20362;-50
2020/12/30 10:43:52;;;;;;;6.72;1.00;;;;;;;;;;5052607;28;20099;-45
2020/12/30 10:46:19;;;;;;;6.07;0.95;;;;;;;;;;5052600;28;20021;-43
2020/12/30 10:48:47;;;;;;;8.82;1.17;;;;;;;;;;5053152;28;20036;-44
2020/12/30 10:51:15;;;;;;;4.03;0.80;;;;;;;;;;5052313;28;20079;-44
2020/12/30 10:53:42;;;;;;;2.88;1.20;;;;;;;;;;5052698;28;20108;-44
2020/12/30 10:56:10;;;;;;;4.38;0.70;;;;;;;;;;5052446;28;20029;-41
2020/12/30 10:58:39;;;;;;;4.75;0.95;;;;;;;;;;5052656;28;20415;-44
2020/12/30 11:01:07;;;;;;;2.75;0.47;;;;;;;;;;5052821;28;20033;-43
2020/12/30 11:03:35;;;;;;;4.43;0.50;;;;;;;;;;5051285;28;20025;-43
2020/12/30 11:06:02;;;;;;;2.78;0.40;;;;;;;;;;5050295;28;20052;-43
2020/12/30 11:08:29;;;;;;;59.08;3.63;;;;;;;;;;5052563;28;20550;-42
2020/12/30 11:11:03;;;;;;;18.38;1.40;;;;;;;;;;5052332;28;20392;-46
2020/12/30 11:13:30;;;;;;;13.20;1.33;;;;;;;;;;5049298;28;20507;-46
2020/12/30 11:15:58;;;;;;;18.00;1.15;;;;;;;;;;5046221;28;20030;-48
2020/12/30 11:18:25;;;;;;;14.38;0.65;;;;;;;;;;5048994;28;20021;-54
2020/12/30 11:20:52;;;;;;;24.67;0.85;;;;;;;;;;5052125;28;20024;-49
2020/12/30 11:23:19;;;;;;;109.88;6.18;;;;;;;;;;5052218;28;20489;-52
2020/12/30 11:25:46;;;;;;;35.80;2.53;;;;;;;;;;5051496;28;20044;-45
2020/12/30 11:28:13;;;;;;;28.08;2.50;;;;;;;;;;5052394;28;20104;-48
2020/12/30 11:30:41;;;;;;;25.85;2.83;;;;;;;;;;5051834;28;20017;-45
2020/12/30 11:33:08;;;;;;;16.20;1.55;;;;;;;;;;5044244;28;20465;-43
2020/12/30 11:35:35;;;;;;;8.25;0.60;;;;;;;;;;5045730;28;20120;-43
2020/12/30 11:38:02;;;;;;;46.42;2.45;;;;;;;;;;5037431;28;20070;-44
2020/12/30 11:40:29;;;;;;;24.42;2.42;;;;;;;;;;5051377;28;20081;-45
2020/12/30 11:42:56;;;;;;;14.70;1.30;;;;;;;;;;5051361;28;20104;-46
2020/12/30 11:45:23;;;;;;;18.17;1.25;;;;;;;;;;5050659;28;20029;-43
2020/12/30 11:47:50;;;;;;;19.88;1.00;;;;;;;;;;5048279;28;20024;-48
2020/12/30 11:50:17;;;;;;;15.38;1.60;;;;;;;;;;5047162;28;20040;-46
2020/12/30 11:52:44;;;;;;;12.90;1.23;;;;;;;;;;5045966;28;20073;-43
2020/12/30 11:55:12;;;;;;;3.17;0.60;;;;;;;;;;5046986;28;20032;-47
2020/12/30 11:57:38;;;;;;;14.35;0.70;;;;;;;;;;5043086;28;20059;-45
2020/12/30 12:00:07;;;;;;;13.57;0.50;;;;;;;;;;5049542;28;20047;-42
2020/12/30 12:02:34;;;;;;;5.70;0.93;;;;;;;;;;5044383;28;20466;-43
2020/12/30 12:05:01;;;;;;;7.28;0.60;;;;;;;;;;5046816;28;20056;-47
2020/12/30 12:07:29;;;;;;;6.55;0.60;;;;;;;;;;5045923;28;20021;-47
2020/12/30 12:09:56;;;;;;;6.20;1.05;;;;;;;;;;5044430;28;20469;-43
2020/12/30 12:12:24;;;;;;;6.07;0.60;;;;;;;;;;5044724;28;20024;-44
2020/12/30 12:14:51;;;;;;;12.02;1.10;;;;;;;;;;5045236;28;20032;-46
2020/12/30 12:17:18;;;;;;;7.72;2.25;;;;;;;;;;5041561;28;20115;-44
2020/12/30 12:19:46;;;;;;;7.80;1.83;;;;;;;;;;5046258;28;20030;-42
2020/12/30 12:22:16;;;;;;;11.93;1.40;;;;;;;;;;5036928;28;20022;-45
2020/12/30 12:24:43;;;;;;;9.05;1.45;;;;;;;;;;5038001;28;20501;-46
2020/12/30 12:27:10;;;;;;;8.35;1.88;;;;;;;;;;5035307;28;20033;-44
2020/12/30 12:29:37;;;;;;;5.05;1.83;;;;;;;;;;5039946;28;20074;-42
2020/12/30 12:32:11;;;;;;;8.93;1.92;;;;;;;;;;5048999;28;20009;-46
2020/12/30 12:34:39;;;;;;;13.32;2.63;;;;;;;;;;5050897;28;20438;-45
2020/12/30 12:37:07;;;;;;;19.92;3.22;;;;;;;;;;5050300;28;20024;-43
2020/12/30 12:39:35;;;;;;;12.07;4.07;;;;;;;;;;5050515;28;20036;-44
2020/12/30 12:42:03;;;;;;;12.35;3.20;;;;;;;;;;5050737;28;20021;-45
2020/12/30 12:44:31;;;;;;;11.77;3.13;;;;;;;;;;5050388;28;20421;-42
2020/12/30 12:46:58;;;;;;;12.38;2.55;;;;;;;;;;5050281;28;20029;-45
2020/12/30 12:49:25;;;;;;;12.85;3.10;;;;;;;;;;5049588;28;20013;-46
2020/12/30 12:51:55;;;;;;;15.75;2.00;;;;;;;;;;5032394;28;20401;-43
2020/12/30 12:54:22;;;;;;;8.15;1.80;;;;;;;;;;5042283;28;20497;-45
2020/12/30 12:56:55;;;;;;;8.52;2.92;;;;;;;;;;5042703;28;20045;-45
2020/12/30 12:59:22;;;;;;;6.63;2.53;;;;;;;;;;5050133;28;20021;-45
2020/12/30 13:01:49;;;;;;;5.75;1.88;;;;;;;;;;5050471;28;20029;-43
2020/12/30 13:04:16;;;;;;;74.50;6.18;;;;;;;;;;5045511;28;20033;-60
2020/12/30 13:06:43;;;;;;;43.00;3.72;;;;;;;;;;5052781;28;20025;-58
2020/12/30 13:09:11;;;;;;;52.22;4.03;;;;;;;;;;5052764;28;20024;-49
2020/12/30 13:11:51;;;;;;;30.48;3.70;;;;;;;;;;5053842;28;20025;-58
2020/12/30 13:14:19;;;;;;;25.52;3.00;;;;;;;;;;5039100;28;20033;-48
2020/12/30 13:16:53;;;;;;;165.15;10.68;;;;;;;;;;5048350;28;20028;-57
2020/12/30 13:19:21;;;;;;;34.15;3.58;;;;;;;;;;5034272;28;20052;-57
2020/12/30 13:21:49;;;;;;;50.22;4.70;;;;;;;;;;5041932;28;20024;-53
2020/12/30 13:24:16;;;;;;;35.97;4.75;;;;;;;;;;5053602;28;20056;-57
2020/12/30 13:26:43;;;;;;;29.15;3.95;;;;;;;;;;5050990;28;20139;-58
2020/12/30 13:29:10;;;;;;;39.88;4.30;;;;;;;;;;5052825;28;20033;-53
2020/12/30 13:31:37;;;;;;;47.75;4.20;;;;;;;;;;5052615;28;20032;-54
2020/12/30 13:34:04;;;;;;;31.52;4.30;;;;;;;;;;5052033;28;20009;-58
2020/12/30 13:36:31;;;;;;;30.77;3.58;;;;;;;;;;5052262;28;20033;-52
2020/12/30 13:38:58;;;;;;;45.45;4.43;;;;;;;;;;5052308;28;20029;-57
2020/12/30 13:41:26;;;;;;;23.63;3.45;;;;;;;;;;5053135;28;20473;-51
2020/12/30 13:43:53;;;;;;;34.75;3.35;;;;;;;;;;5053452;28;20108;-54
2020/12/30 13:46:20;;;;;;;35.58;2.42;;;;;;;;;;5053178;28;20024;-53
2020/12/30 13:48:48;;;;;;;34.28;2.30;;;;;;;;;;5053032;28;20044;-56
2020/12/30 13:51:17;;;;;;;6.70;1.33;;;;;;;;;;5053650;28;20141;-51
2020/12/30 13:53:44;;;;;;;4.70;0.80;;;;;;;;;;5053466;28;20056;-52
2020/12/30 13:56:11;;;;;;;8.13;1.13;;;;;;;;;;5052426;28;20068;-52
2020/12/30 13:58:38;;;;;;;6.63;1.17;;;;;;;;;;5035482;28;20366;-48
2020/12/30 14:01:05;;;;;;;3.90;0.70;;;;;;;;;;5053235;28;20104;-46
2020/12/30 14:03:32;;;;;;;8.13;0.98;;;;;;;;;;5053517;28;20027;-48
2020/12/30 14:05:59;;;;;;;10.75;1.27;;;;;;;;;;5053491;28;20048;-48
2020/12/30 14:08:26;;;;;;;11.38;1.33;;;;;;;;;;5052866;28;20104;-54
2020/12/30 14:10:53;;;;;;;7.93;0.85;;;;;;;;;;5053299;28;20032;-55
2020/12/30 14:13:20;;;;;;;6.68;0.80;;;;;;;;;;5053313;28;20021;-52
2020/12/30 14:15:48;;;;;;;7.05;0.88;;;;;;;;;;5051929;28;20055;-56
2020/12/30 14:18:15;;;;;;;27.58;2.28;;;;;;;;;;5051085;28;20096;-52
2020/12/30 14:20:42;;;;;;;6.90;1.38;;;;;;;;;;5046531;28;20036;-48
2020/12/30 14:23:08;;;;;;;9.23;0.90;;;;;;;;;;5046133;28;20021;-56
2020/12/30 14:25:35;;;;;;;8.60;1.33;;;;;;;;;;5046057;28;20024;-54
2020/12/30 14:28:03;;;;;;;17.00;1.38;;;;;;;;;;5052411;28;20031;-56
2020/12/30 14:30:30;;;;;;;8.63;0.88;;;;;;;;;;5052882;28;20033;-50
2020/12/30 14:32:57;;;;;;;9.35;1.75;;;;;;;;;;5052598;28;20025;-55
2020/12/30 14:35:24;;;;;;;12.55;1.67;;;;;;;;;;5052403;28;20084;-50
2020/12/30 14:37:51;;;;;;;3.85;0.80;;;;;;;;;;5051593;28;20025;-55
2020/12/30 14:40:18;;;;;;;12.95;1.10;;;;;;;;;;5050376;28;20118;-57
2020/12/30 14:42:45;;;;;;;11.95;0.80;;;;;;;;;;5047228;28;20021;-52